Latest Weather Observations for Kowanyama

IDQ60801

Issued at 7:32 am EST Wednesday 5 August 2015 (issued every 30 minutes, with the page automatically refreshed every 10 minutes)

About weather observations | Map of weather stations | Latest weather observations for QLD | Other Formats
Station Details ID: 029038 Name: KOWANYAMA AIRPORT Lat: -15.48 Lon: 141.75 Height: 9.6 m
Data from the previous 72 hours. | See also: Recent months at Kowanyama
Date/Time
EST
Temp
°C
App
Temp
°C
Dew
Point
Rel
Hum
%
Delta-T
°C
Wind Press
QNH
hPa
Press
MSL
hPa
Rain
since 9 am
mm
Dir
 
Spd
km/h
Gust
km/h
Spd
kts
Gust
kts
05/07:30am 16.9 13.0 1.0 34 7.0 S 11 15 6 8 1015.6 1015.6 0.0
05/07:00am 15.4 11.9 1.2 38 6.2 S 9 13 5 7 1015.3 1015.3 0.0
05/06:30am 14.6 10.9 2.2 43 5.5 S 11 13 6 7 1015.0 1015.0 0.0
05/06:00am 15.2 12.3 2.4 42 5.7 SSE 7 9 4 5 1014.9 1014.9 0.0
05/05:30am 15.1 12.3 3.0 44 5.5 SSE 7 9 4 5 1014.4 1014.4 0.0
05/05:00am 14.7 12.0 3.8 48 5.0 SSE 7 9 4 5 1014.2 1014.1 0.0
05/04:30am 14.7 12.2 3.5 47 5.1 S 6 7 3 4 1014.4 1014.4 0.0
05/04:00am 14.9 12.3 3.1 45 5.3 SSE 6 7 3 4 1014.4 1014.4 0.0
05/03:30am 15.5 12.7 3.0 43 5.7 SE 7 9 4 5 1014.7 1014.7 0.0
05/03:00am 16.2 13.4 2.9 41 6.0 SSE 7 9 4 5 1015.0 1015.0 0.0
05/02:30am 17.6 14.7 2.4 36 6.9 ESE 7 13 4 7 1014.8 1014.8 0.0
05/02:00am 18.6 14.5 2.0 33 7.5 E 13 20 7 11 1015.1 1015.1 0.0
05/01:30am 18.6 15.2 2.0 33 7.5 SSW 9 11 5 6 1014.4 1014.4 0.0
05/01:00am 19.6 16.2 2.0 31 8.1 SSW 9 11 5 6 1014.6 1014.6 0.0
05/12:30am 20.3 16.7 3.1 32 8.1 S 11 15 6 8 1014.7 1014.7 0.0
05/12:00am 20.8 17.4 4.0 33 8.1 S 11 15 6 8 1014.6 1014.6 0.0
 
Date/Time
EST
Temp
°C
App
Temp
°C
Dew
Point
Rel
Hum
%
Delta-T
°C
Wind Press
QNH
hPa
Press
MSL
hPa
Rain
since 9 am
mm
Dir
 
Spd
km/h
Gust
km/h
Spd
kts
Gust
kts
04/11:30pm 21.2 18.1 5.5 36 7.8 S 11 15 6 8 1014.7 1014.7 0.0
04/11:00pm 21.8 18.8 7.6 40 7.4 SSW 13 19 7 10 1014.7 1014.7 0.0
04/10:30pm 22.3 19.6 8.8 42 7.2 SSW 13 20 7 11 1014.6 1014.6 0.0
04/10:00pm 21.4 20.2 11.7 54 5.4 SSW 9 13 5 7 1014.5 1014.5 0.0
04/09:30pm 21.5 20.5 12.4 56 5.1 SSW 9 13 5 7 1014.3 1014.2 0.0
04/09:00pm 21.6 21.1 13.8 61 4.5 SSW 9 15 5 8 1014.2 1014.1 0.0
04/08:30pm 21.8 21.3 13.9 61 4.6 SW 9 13 5 7 1014.0 1013.9 0.0
04/08:00pm 22.2 21.5 13.3 57 5.1 SW 9 13 5 7 1013.6 1013.5 0.0
04/07:30pm 22.8 21.5 12.4 52 5.9 SW 11 15 6 8 1013.4 1013.3 0.0
04/07:00pm 23.6 21.6 11.6 47 6.8 SW 13 20 7 11 1013.2 1013.1 0.0
04/06:30pm 24.6 22.0 10.8 42 7.7 SW 15 22 8 12 1012.9 1012.8 0.0
04/06:00pm 26.1 22.4 10.3 37 8.8 WSW 20 28 11 15 1012.7 1012.6 0.0
04/05:30pm 27.4 23.2 9.7 33 9.8 WSW 22 30 12 16 1012.5 1012.4 0.0
04/05:00pm 28.6 23.9 9.3 30 10.7 WSW 24 33 13 18 1012.4 1012.3 0.0
04/04:30pm 29.0 24.7 9.2 29 11.0 W 22 30 12 16 1012.3 1012.2 0.0
04/04:00pm 30.7 28.4 10.6 29 11.5 WSW 13 22 7 12 1012.2 1012.1 0.0
04/03:30pm 31.2 30.0 11.6 30 11.4 SSE 9 17 5 9 1012.3 1012.2 0.0
04/03:00pm 30.9 29.0 11.8 31 11.2 SE 13 20 7 11 1012.6 1012.5 0.0
04/02:30pm 30.0 28.8 11.5 32 10.7 S 9 19 5 10 1013.2 1013.1 0.0
04/02:00pm 30.5 29.9 12.4 33 10.7 ESE 7 11 4 6 1013.6 1013.5 0.0
04/01:30pm 29.4 27.7 12.3 34 10.0 S 13 19 7 10 1014.3 1014.2 0.0
04/01:00pm 28.9 28.4 12.8 37 9.5 SE 7 17 4 9 1014.9 1014.9 0.0
04/12:30pm 29.6 29.1 13.8 38 9.5 NW 9 13 5 7 1015.7 1015.7 0.0
04/12:00pm 28.5 28.4 14.0 41 8.7 E 7 17 4 9 1016.3 1016.3 0.0
04/11:30am 27.4 27.0 14.1 44 7.9 SW 9 17 5 9 1016.7 1016.7 0.0
04/11:00am 27.3 27.3 14.3 45 7.8 NW 7 13 4 7 1017.1 1017.1 0.0
04/10:30am 25.9 25.7 14.7 50 6.7 ESE 9 15 5 8 1017.4 1017.4 0.0
04/10:00am 25.5 25.7 14.6 51 6.5 ESE 7 13 4 7 1017.6 1017.6 0.0
04/09:30am 24.6 25.1 15.0 55 5.7 ESE 6 9 3 5 1017.7 1017.7 0.0
04/09:00am 23.2 23.7 15.5 62 4.6 SE 7 9 4 5 1017.8 1017.8 0.0
04/08:30am 21.4 21.9 15.5 69 3.5 SE 7 9 4 5 1017.6 1017.6 0.0
04/08:00am 18.5 19.0 15.0 80 2.0 SSE 6 9 3 5 1017.3 1017.3 0.0
04/07:30am 16.5 16.9 14.7 89 1.0 SE 6 7 3 4 1016.9 1016.9 0.0
04/07:00am 15.3 16.5 13.7 90 0.9 CALM 0 0 0 0 1016.3 1016.3 0.0
04/06:30am 15.7 16.1 13.7 88 1.1 ESE 4 7 2 4 1015.9 1015.9 0.0
04/06:00am 15.9 16.2 14.6 92 0.7 ESE 6 7 3 4 1015.5 1015.5 0.0
04/05:30am 15.7 16.0 14.4 92 0.7 ESE 6 7 3 4 1015.2 1015.2 0.0
04/05:00am 16.1 17.7 14.8 92 0.7 CALM 0 0 0 0 1015.1 1015.1 0.0
04/04:30am 16.1 17.6 14.6 91 0.9 CALM 0 0 0 0 1015.0 1015.0 0.0
04/04:00am 16.4 18.0 14.9 91 0.9 CALM 0 0 0 0 1014.9 1014.9 0.0
04/03:30am 16.9 18.7 15.4 91 0.9 CALM 0 0 0 0 1014.9 1014.9 0.0
04/03:00am 17.3 18.4 15.5 89 1.1 SSW 4 6 2 3 1014.9 1014.9 0.0
04/02:30am 17.9 19.7 15.5 86 1.4 CALM 0 0 0 0 1015.1 1015.1 0.0
04/02:00am 18.7 19.5 15.8 83 1.7 SE 6 9 3 5 1015.4 1015.4 0.0
04/01:30am 20.1 21.0 16.7 81 2.1 E 7 11 4 6 1015.5 1015.5 0.0
04/01:00am 19.9 19.8 17.9 88 1.2 E 15 20 8 11 1015.6 1015.6 0.0
04/12:30am 19.0 20.3 17.0 88 1.2 SSW 6 7 3 4 1014.9 1014.9 0.0
04/12:00am 19.6 20.9 17.6 88 1.2 SSW 7 11 4 6 1015.1 1015.1 0.0
 
Date/Time
EST
Temp
°C
App
Temp
°C
Dew
Point
Rel
Hum
%
Delta-T
°C
Wind Press
QNH
hPa
Press
MSL
hPa
Rain
since 9 am
mm
Dir
 
Spd
km/h
Gust
km/h
Spd
kts
Gust
kts
03/11:30pm 19.6 20.8 17.4 87 1.3 SSW 7 9 4 5 1015.3 1015.3 0.0
03/11:00pm 19.9 21.3 17.3 85 1.6 SSW 6 9 3 5 1015.5 1015.5 0.0
03/10:30pm 20.3 21.5 17.3 83 1.8 SSW 7 9 4 5 1015.6 1015.6 0.0
03/10:00pm 20.7 22.1 17.3 81 2.1 SSW 6 9 3 5 1015.7 1015.7 0.0
03/09:30pm 21.2 22.0 17.4 79 2.3 SW 9 11 5 6 1015.7 1015.7 0.0
03/09:00pm 21.8 22.4 17.6 77 2.6 SW 11 15 6 8 1015.7 1015.7 0.0
03/08:30pm 22.2 23.1 17.6 75 2.8 SW 9 13 5 7 1015.6 1015.6 0.0
03/08:00pm 22.6 22.6 17.1 71 3.4 SW 13 15 7 8 1015.5 1015.5 0.0
03/07:30pm 23.3 22.7 16.6 66 4.1 SW 15 20 8 11 1015.2 1015.2 0.0
03/07:00pm 23.8 23.1 15.3 59 5.1 SW 13 19 7 10 1014.8 1014.8 0.0
03/06:30pm 24.7 23.4 14.8 54 5.9 WSW 15 20 8 11 1014.6 1014.6 0.0
03/06:00pm 26.0 24.2 14.5 49 6.9 WSW 17 26 9 14 1014.3 1014.2 0.0
03/05:30pm 27.2 24.5 14.6 46 7.6 WSW 22 28 12 15 1014.2 1014.1 0.0
03/05:00pm 28.1 25.4 14.7 44 8.1 WSW 22 35 12 19 1014.1 1014.0 0.0
03/04:30pm 29.2 26.9 14.2 40 9.0 WSW 19 30 10 16 1013.8 1013.7 0.0
03/04:00pm 30.4 29.1 13.7 36 10.0 SSW 13 22 7 12 1013.8 1013.7 0.0
03/03:30pm 31.5 27.9 8.5 24 12.8 SSE 17 26 9 14 1013.9 1013.8 0.0
03/03:00pm 31.9 28.6 9.4 25 12.7 SE 17 28 9 15 1014.2 1014.1 0.0
03/02:30pm 32.3 29.1 9.8 25 12.8 SSE 17 30 9 16 1014.6 1014.6 0.0
03/02:00pm 31.2 28.0 10.0 27 12.0 SE 17 26 9 14 1015.0 1015.0 0.0
03/01:30pm 30.7 27.1 10.6 29 11.5 SE 20 30 11 16 1015.6 1015.6 0.0
03/01:00pm 30.2 27.5 11.7 32 10.7 SSE 17 28 9 15 1016.1 1016.1 0.0
03/12:30pm 29.8 28.4 12.3 34 10.3 E 11 20 6 11 1016.6 1016.6 0.0
03/12:00pm 29.6 28.2 12.1 34 10.2 ESE 11 19 6 10 1017.1 1017.1 0.0
03/11:30am 28.8 27.8 12.2 35 9.7 E 9 17 5 9 1017.5 1017.5 0.0
03/11:00am 28.6 26.7 12.9 38 9.2 ESE 15 24 8 13 1017.8 1017.8 0.0
03/10:30am 27.1 25.1 12.7 41 8.4 ENE 15 20 8 11 1018.0 1018.0 0.0
03/10:00am 26.4 24.8 13.9 46 7.4 ENE 15 22 8 12 1018.2 1018.2 0.0
03/09:30am 24.7 23.5 13.9 51 6.4 ENE 13 20 7 11 1018.2 1018.2 0.0
03/09:00am 23.7 22.5 14.1 55 5.6 E 13 19 7 10 1018.0 1018.0 0.0
03/08:30am 22.1 23.0 15.0 64 4.2 ENE 4 13 2 7 1018.0 1018.0 0.0
03/08:00am 18.1 19.4 14.2 78 2.2 CALM 0 0 0 0 1017.9 1017.9 0.0
03/07:30am 15.7 16.8 13.4 86 1.3 CALM 0 6 0 3 1017.6 1017.6 0.0
03/07:00am 14.8 15.8 13.2 90 0.9 CALM 0 0 0 0 1017.2 1017.2 0.0
03/06:30am 14.8 15.8 13.2 90 0.9 CALM 0 0 0 0 1017.0 1017.0 0.0
03/06:00am 15.1 16.1 13.3 89 1.0 CALM 0 0 0 0 1016.8 1016.8 0.0
03/05:30am 15.4 16.5 13.4 88 1.1 CALM 0 0 0 0 1016.7 1016.7 0.0
03/05:00am 15.8 16.9 13.6 87 1.2 CALM 0 0 0 0 1016.6 1016.6 0.0
03/04:30am 16.0 17.1 13.5 85 1.4 CALM 0 2 0 1 1016.5 1016.5 0.0
03/04:00am 16.1 17.3 13.8 86 1.3 CALM 0 0 0 0 1016.4 1016.4 0.0
03/03:30am 16.7 18.0 14.0 84 1.5 CALM 0 0 0 0 1016.1 1016.1 0.0
03/03:00am 16.9 18.2 14.2 84 1.5 CALM 0 0 0 0 1016.4 1016.4 0.0
03/02:30am 17.2 18.5 14.1 82 1.8 CALM 0 0 0 0 1016.5 1016.5 0.0
03/02:00am 17.8 19.2 14.3 80 2.0 CALM 0 0 0 0 1016.8 1016.8 0.0
03/01:30am 18.2 19.6 14.5 79 2.1 CALM 0 0 0 0 1017.0 1017.0 0.0
03/01:00am 18.2 19.7 14.7 80 2.0 CALM 0 0 0 0 1016.9 1016.9 0.0
03/12:30am 18.5 20.1 15.0 80 2.0 CALM 0 0 0 0 1017.1 1017.1 0.0
03/12:00am 19.0 20.6 14.9 77 2.4 CALM 0 0 0 0 1016.9 1016.9 0.0
 
Date/Time
EST
Temp
°C
App
Temp
°C
Dew
Point
Rel
Hum
%
Delta-T
°C
Wind Press
QNH
hPa
Press
MSL
hPa
Rain
since 9 am
mm
Dir
 
Spd
km/h
Gust
km/h
Spd
kts
Gust
kts
02/11:30pm 19.3 20.9 15.0 76 2.5 CALM 0 0 0 0 1017.0 1017.0 0.0
02/11:00pm 20.9 22.8 15.7 72 3.1 CALM 0 0 0 0 1016.6 1016.6 0.0
02/10:30pm 21.2 21.8 15.7 71 3.3 S 7 9 4 5 1016.6 1016.6 0.0
02/10:00pm 21.5 22.4 16.0 71 3.3 S 6 9 3 5 1016.7 1016.7 0.0
02/09:30pm 21.6 22.5 16.1 71 3.3 SW 6 9 3 5 1016.6 1016.6 0.0
02/09:00pm 22.3 23.1 16.3 69 3.6 SW 7 9 4 5 1016.2 1016.2 0.0
02/08:30pm 23.0 23.3 16.1 65 4.2 SW 9 13 5 7 1016.0 1016.0 0.0
02/08:00pm 23.9 24.0 15.4 59 5.1 WSW 9 13 5 7 1015.6 1015.6 0.0
02/07:30pm 25.1 25.3 14.8 52 6.2 WNW 7 13 4 7 1015.0 1015.0 0.0
02/07:00pm 26.6 25.7 10.7 37 8.9 SE 6 7 3 4 1014.5 1014.5 0.0
02/06:30pm 28.9 27.8 10.6 32 10.4 SE 7 9 4 5 1014.3 1014.2 0.0
02/06:00pm 30.4 28.2 10.9 30 11.2 ESE 13 19 7 10 1014.2 1014.1 0.0
02/05:30pm 31.0 28.7 10.4 28 11.8 ESE 13 19 7 10 1014.0 1013.9 0.0
02/05:00pm 31.3 28.7 9.5 26 12.3 SE 13 24 7 13 1013.9 1013.8 0.0
02/04:30pm 32.0 29.2 10.1 26 12.5 ESE 15 20 8 11 1013.9 1013.8 0.0
02/04:00pm 31.8 27.9 8.7 24 12.9 SE 19 32 10 17 1013.9 1013.8 0.0
02/03:30pm 31.8 28.8 9.3 25 12.7 E 15 24 8 13 1014.2 1014.1 0.0
02/03:00pm 31.7 29.5 9.3 25 12.6 E 11 22 6 12 1014.5 1014.5 0.0
02/02:30pm 31.5 28.2 9.7 26 12.4 E 17 28 9 15 1014.9 1014.9 0.0
02/02:00pm 31.8 28.2 9.9 26 12.5 SE 19 32 10 17 1015.3 1015.3 0.0
02/01:30pm 31.0 27.5 10.9 29 11.6 ESE 20 28 11 15 1015.9 1015.9 0.0
02/01:00pm 30.2 26.8 11.2 31 10.9 ESE 20 32 11 17 1016.6 1016.6 0.0
02/12:30pm 29.0 26.4 12.0 35 9.9 E 17 26 9 14 1017.0 1017.0 0.0
02/12:00pm 29.1 26.8 12.9 37 9.5 ENE 17 28 9 15 1017.6 1017.6 0.0
02/11:30am 28.0 25.3 12.8 39 8.9 ENE 19 28 10 15 1018.0 1018.0 0.0
02/11:00am 27.8 25.3 14.1 43 8.2 E 20 33 11 18 1018.4 1018.4 0.0
02/10:30am 26.8 24.4 13.9 45 7.7 ENE 19 30 10 16 1018.9 1018.9 0.0
02/10:00am 25.8 23.9 14.3 49 6.8 E 17 28 9 15 1019.2 1019.2 0.0
02/09:30am 24.5 23.2 15.7 58 5.3 ENE 17 28 9 15 1019.4 1019.4 0.0
02/09:00am 23.3 23.1 15.6 62 4.6 E 11 17 6 9 1019.4 1019.4 0.0
02/08:30am 21.7 21.8 15.5 68 3.7 ESE 9 13 5 7 1019.2 1019.2 0.0
02/08:00am 18.6 19.1 14.9 79 2.2 SE 6 11 3 6 1019.0 1019.0 0.0

Other Formats:

Comma delimited format used in spreadsheet applications
http://www.bom.gov.au/fwo/IDQ60801/IDQ60801.94268.axf

JavaScript Object Notation format (JSON) in row-major order
http://www.bom.gov.au/fwo/IDQ60801/IDQ60801.94268.json